createdAt,value
2023-01-09T00:02:17.820Z,79.60
2023-01-09T00:05:22.135Z,79.80
2023-01-09T00:08:25.113Z,79.70
2023-01-09T00:11:30.960Z,79.20
2023-01-09T00:14:33.946Z,80.90
2023-01-09T00:17:38.376Z,80.30
2023-01-09T00:20:41.670Z,79.50
2023-01-09T00:23:44.637Z,80.10
2023-01-09T00:26:47.686Z,79.30
2023-01-09T00:29:50.650Z,79.80
2023-01-09T00:32:55.381Z,79.90
2023-01-09T00:35:58.400Z,80.00
2023-01-09T00:39:01.435Z,80.20
2023-01-09T00:42:06.006Z,80.40
2023-01-09T00:45:15.139Z,80.30
2023-01-09T00:48:26.998Z,80.80
2023-01-09T00:51:30.191Z,80.90
2023-01-09T00:54:33.769Z,80.80
2023-01-09T00:57:37.102Z,81.20
2023-01-09T01:00:40.147Z,80.80
2023-01-09T01:03:44.590Z,80.70
2023-01-09T01:07:05.098Z,80.60
2023-01-09T01:10:12.184Z,80.70
2023-01-09T01:13:15.903Z,81.40
2023-01-09T01:16:19.274Z,80.70
2023-01-09T01:19:23.648Z,80.60
2023-01-09T01:22:26.659Z,80.70
2023-01-09T01:25:29.696Z,80.70
2023-01-09T01:28:32.782Z,80.60
2023-01-09T01:31:35.760Z,80.70
2023-01-09T01:34:40.111Z,80.50
2023-01-09T01:37:43.067Z,80.60
2023-01-09T01:40:47.692Z,80.70
2023-01-09T01:43:53.478Z,80.80
2023-01-09T01:46:58.129Z,80.60
2023-01-09T01:50:09.079Z,80.70
2023-01-09T01:53:19.408Z,81.30
2023-01-09T01:56:29.159Z,80.50
2023-01-09T01:59:39.680Z,80.00
2023-01-09T02:02:45.769Z,80.30
2023-01-09T02:05:50.743Z,80.20
2023-01-09T02:08:54.080Z,80.10
2023-01-09T02:12:02.246Z,80.00
2023-01-09T02:15:09.308Z,79.50
2023-01-09T02:18:37.581Z,79.90
2023-01-09T02:22:02.653Z,79.80
2023-01-09T02:25:50.207Z,79.70
2023-01-09T02:29:47.397Z,79.60
2023-01-09T02:33:14.402Z,79.50
2023-01-09T02:36:30.099Z,79.40
2023-01-09T02:39:43.483Z,79.30
2023-01-09T02:42:51.726Z,79.30
2023-01-09T02:45:54.792Z,79.10
2023-01-09T02:48:59.265Z,79.20
2023-01-09T02:52:20.881Z,79.20
2023-01-09T02:55:42.920Z,79.30
2023-01-09T02:59:13.911Z,79.30
2023-01-09T03:02:43.456Z,79.20
2023-01-09T03:05:56.582Z,79.40
2023-01-09T03:09:06.337Z,80.00
2023-01-09T03:12:18.210Z,80.40
2023-01-09T03:15:27.267Z,79.50
2023-01-09T03:18:33.541Z,79.60
2023-01-09T03:21:39.037Z,79.60
2023-01-09T03:24:42.077Z,79.70
2023-01-09T03:27:45.036Z,79.90
2023-01-09T03:30:47.976Z,79.80
2023-01-09T03:33:51.176Z,79.80
2023-01-09T03:36:55.516Z,79.90
2023-01-09T03:39:58.449Z,80.00
2023-01-09T03:43:01.367Z,80.00
2023-01-09T03:46:05.176Z,80.30
2023-01-09T03:49:08.178Z,79.90
2023-01-09T03:52:13.935Z,79.80
2023-01-09T03:55:17.153Z,79.90
2023-01-09T03:58:21.878Z,79.90
2023-01-09T04:01:24.959Z,79.80
2023-01-09T04:04:28.599Z,80.40
2023-01-09T04:07:32.918Z,79.70
2023-01-09T04:10:35.903Z,79.70
2023-01-09T04:13:39.760Z,78.90
2023-01-09T04:16:43.422Z,79.70
2023-01-09T04:19:46.522Z,79.50
2023-01-09T04:22:50.949Z,79.50
2023-01-09T04:25:53.959Z,79.40
2023-01-09T04:28:56.940Z,79.40
2023-01-09T04:31:59.944Z,79.50
2023-01-09T04:35:02.940Z,79.60
2023-01-09T04:38:07.216Z,79.60
2023-01-09T04:41:10.196Z,79.60
2023-01-09T04:44:13.145Z,80.20
2023-01-09T04:47:16.130Z,79.40
2023-01-09T04:50:19.365Z,79.20
2023-01-09T04:53:23.751Z,79.20
2023-01-09T04:56:26.886Z,79.40
2023-01-09T04:59:29.875Z,80.00
2023-01-09T05:02:32.955Z,79.60
2023-01-09T05:05:35.935Z,79.80
2023-01-09T05:08:40.384Z,80.70
2023-01-09T05:11:43.397Z,80.00
2023-01-09T05:14:46.321Z,79.90
2023-01-09T05:17:49.306Z,80.10
2023-01-09T05:20:52.318Z,80.10
2023-01-09T05:23:56.690Z,80.10
2023-01-09T05:26:59.677Z,80.00
2023-01-09T05:30:02.745Z,79.80
2023-01-09T05:33:05.755Z,80.10
2023-01-09T05:36:09.572Z,80.70
2023-01-09T05:39:14.109Z,79.80
2023-01-09T05:42:17.201Z,79.80
2023-01-09T05:45:20.323Z,79.80
2023-01-09T05:48:23.291Z,79.70
2023-01-09T05:51:26.280Z,80.50
2023-01-09T05:54:30.597Z,79.80
2023-01-09T05:57:33.587Z,79.70
2023-01-09T06:00:36.980Z,79.80
2023-01-09T06:03:39.910Z,79.90
2023-01-09T06:06:42.995Z,80.40
2023-01-09T06:09:47.303Z,79.50
2023-01-09T06:12:53.145Z,79.40
2023-01-09T06:15:56.175Z,79.30
2023-01-09T06:19:00.560Z,79.20
2023-01-09T06:22:03.781Z,79.00
2023-01-09T06:25:09.579Z,78.90
2023-01-09T06:28:12.636Z,78.80
2023-01-09T06:31:15.629Z,79.10
2023-01-09T06:34:18.632Z,78.80
2023-01-09T06:37:21.648Z,78.90
2023-01-09T06:40:25.934Z,80.50
2023-01-09T06:43:29.013Z,79.40
2023-01-09T06:46:33.058Z,79.30
2023-01-09T06:49:38.185Z,79.10
2023-01-09T06:52:41.418Z,79.50
2023-01-09T06:55:47.261Z,79.40
2023-01-09T06:58:50.283Z,80.10
2023-01-09T07:01:53.528Z,79.90
2023-01-09T07:04:56.986Z,80.70
2023-01-09T07:08:00.040Z,80.00
2023-01-09T07:11:04.307Z,80.60
2023-01-09T07:14:07.785Z,80.30
2023-01-09T07:17:13.333Z,80.50
2023-01-09T07:20:16.733Z,80.60
2023-01-09T07:23:19.760Z,80.60
2023-01-09T07:26:24.119Z,81.90
2023-01-09T07:29:27.130Z,80.80
2023-01-09T07:32:30.151Z,80.80
2023-01-09T07:35:33.197Z,80.80
2023-01-09T07:38:37.591Z,81.00
2023-01-09T07:41:42.135Z,81.00
2023-01-09T07:44:45.291Z,81.10
2023-01-09T07:47:48.441Z,81.00
2023-01-09T07:50:51.471Z,81.20
2023-01-09T07:53:54.507Z,81.00
2023-01-09T07:56:59.850Z,81.10
2023-01-09T08:00:03.494Z,81.00
2023-01-09T08:03:06.569Z,80.90
2023-01-09T08:06:10.225Z,80.90
2023-01-09T08:09:13.913Z,80.70
2023-01-09T08:12:18.284Z,81.10
2023-01-09T08:15:21.338Z,81.10
2023-01-09T08:18:24.393Z,81.10
2023-01-09T08:21:27.433Z,81.00
2023-01-09T08:24:32.708Z,81.10
2023-01-09T08:27:37.041Z,81.10
2023-01-09T08:30:40.928Z,81.10
2023-01-09T08:33:44.008Z,81.00
2023-01-09T08:36:47.087Z,81.00
2023-01-09T08:39:50.047Z,82.00
2023-01-09T08:43:11.958Z,80.90
2023-01-09T08:46:39.696Z,80.90
2023-01-09T08:49:42.785Z,80.70
2023-01-09T08:52:45.967Z,80.70
2023-01-09T08:55:48.930Z,80.70
2023-01-09T08:58:53.255Z,80.70
2023-01-09T09:01:59.066Z,80.30
2023-01-09T09:05:02.160Z,80.00
2023-01-09T09:08:06.144Z,80.90
2023-01-09T09:11:09.129Z,80.90
2023-01-09T09:14:31.363Z,81.00
2023-01-09T09:17:34.582Z,81.00
2023-01-09T09:20:40.141Z,81.00
2023-01-09T09:23:44.186Z,81.00
2023-01-09T09:26:47.192Z,81.00
2023-01-09T09:29:51.477Z,81.00
2023-01-09T09:32:54.572Z,81.90
2023-01-09T09:36:00.573Z,81.10
2023-01-09T09:39:03.901Z,80.70
2023-01-09T09:43:07.859Z,81.00
2023-01-09T09:46:30.432Z,81.00
2023-01-09T09:49:48.494Z,81.20
2023-01-09T09:52:59.666Z,80.90
2023-01-09T09:56:02.711Z,80.90
2023-01-09T09:59:15.607Z,81.00
2023-01-09T10:02:30.485Z,81.20
2023-01-09T10:05:38.761Z,81.00
2023-01-09T10:08:53.429Z,81.00
2023-01-09T10:12:03.890Z,81.20
2023-01-09T10:15:19.225Z,80.50
2023-01-09T10:18:48.350Z,80.90
2023-01-09T10:22:05.289Z,81.00
2023-01-09T10:25:23.849Z,80.90
2023-01-09T10:28:55.525Z,80.20
2023-01-09T10:32:30.852Z,81.00
2023-01-09T10:35:58.782Z,80.60
2023-01-09T10:39:08.447Z,79.60
2023-01-09T10:42:22.921Z,79.70
2023-01-09T10:45:30.456Z,80.50
2023-01-09T10:48:36.335Z,80.80
2023-01-09T10:51:47.773Z,80.50
2023-01-09T10:54:57.714Z,80.60
2023-01-09T10:58:05.571Z,80.50
2023-01-09T11:01:10.700Z,79.80
2023-01-09T11:04:26.831Z,80.40
2023-01-09T11:07:38.190Z,80.20
2023-01-09T11:10:50.744Z,80.60
2023-01-09T11:14:08.299Z,80.20
2023-01-09T11:17:22.137Z,80.00
2023-01-09T11:20:29.964Z,80.00
2023-01-09T11:23:34.787Z,80.00
2023-01-09T11:26:38.059Z,79.90
2023-01-09T11:29:41.515Z,79.60
2023-01-09T11:32:47.200Z,79.70
2023-01-09T11:36:08.108Z,79.70
2023-01-09T11:39:25.703Z,79.50
2023-01-09T11:42:48.864Z,79.00
2023-01-09T11:46:01.680Z,79.20
2023-01-09T11:49:22.929Z,79.90
2023-01-09T11:52:26.563Z,79.00
2023-01-09T11:55:41.981Z,78.90
2023-01-09T11:58:46.687Z,78.70
2023-01-09T12:02:13.656Z,78.60
2023-01-09T12:05:38.666Z,77.60
2023-01-09T12:08:57.931Z,77.90
2023-01-09T12:12:18.252Z,77.40
2023-01-09T12:15:32.174Z,77.80
2023-01-09T12:18:54.215Z,77.80
2023-01-09T12:22:11.560Z,77.90
2023-01-09T12:25:31.807Z,77.70
2023-01-09T12:29:06.019Z,77.70
2023-01-09T12:32:28.143Z,77.60
2023-01-09T12:35:41.327Z,77.70
2023-01-09T12:38:55.037Z,77.80
2023-01-09T12:42:34.971Z,77.60
2023-01-09T12:46:04.224Z,78.30
2023-01-09T12:49:30.376Z,76.60
2023-01-09T12:52:43.199Z,77.60
2023-01-09T12:55:54.067Z,77.70
2023-01-09T12:59:03.369Z,77.90
2023-01-09T13:02:24.330Z,78.50
2023-01-09T13:05:36.398Z,78.40
2023-01-09T13:08:44.681Z,77.80
2023-01-09T13:12:03.288Z,78.50
2023-01-09T13:15:27.559Z,78.00
2023-01-09T13:18:43.665Z,78.10
2023-01-09T13:21:47.477Z,77.90
2023-01-09T13:25:34.675Z,78.10
2023-01-09T13:28:49.369Z,77.70
2023-01-09T13:32:38.381Z,77.90
2023-01-09T13:35:57.246Z,77.60
2023-01-09T13:39:02.919Z,77.70
2023-01-09T13:42:26.130Z,77.90
2023-01-09T13:45:37.118Z,77.00
2023-01-09T13:48:46.362Z,77.60
2023-01-09T13:52:04.977Z,77.40
2023-01-09T13:55:38.626Z,76.80
2023-01-09T13:59:05.635Z,75.80
2023-01-09T14:03:02.121Z,76.70
2023-01-09T14:06:20.233Z,76.60
2023-01-09T14:09:25.884Z,76.70
2023-01-09T14:12:41.874Z,77.20
2023-01-09T14:15:47.320Z,76.60
2023-01-09T14:18:57.474Z,77.90
2023-01-09T14:22:03.139Z,76.80
2023-01-09T14:25:19.256Z,76.50
2023-01-09T14:28:26.024Z,77.00
2023-01-09T14:31:35.370Z,76.70
2023-01-09T14:34:43.646Z,77.40
2023-01-09T14:38:03.656Z,77.30
2023-01-09T14:41:47.913Z,77.00
2023-01-09T14:44:59.787Z,77.20
2023-01-09T14:48:09.909Z,77.90
2023-01-09T14:51:20.421Z,77.90
2023-01-09T14:54:38.878Z,77.60
2023-01-09T14:57:46.043Z,78.10
2023-01-09T15:00:57.936Z,77.60
2023-01-09T15:04:07.363Z,77.00
2023-01-09T15:07:30.881Z,76.70
2023-01-09T15:10:38.607Z,77.30
2023-01-09T15:13:49.036Z,77.40
2023-01-09T15:16:52.225Z,77.50
2023-01-09T15:19:56.902Z,77.50
2023-01-09T15:23:01.621Z,78.30
2023-01-09T15:26:26.030Z,77.20
2023-01-09T15:29:30.369Z,77.00
2023-01-09T15:32:33.601Z,76.00
2023-01-09T15:35:37.420Z,78.00
2023-01-09T15:38:42.601Z,77.20
2023-01-09T15:42:06.042Z,76.90
2023-01-09T15:45:23.990Z,76.70
2023-01-09T15:48:30.772Z,76.90
2023-01-09T15:51:34.703Z,76.90
2023-01-09T15:54:39.835Z,77.00
2023-01-09T15:57:52.675Z,77.00
2023-01-09T16:01:00.726Z,77.30
2023-01-09T16:04:16.961Z,77.40
2023-01-09T16:07:22.365Z,77.70
2023-01-09T16:10:31.358Z,77.50
2023-01-09T16:13:44.329Z,79.10
2023-01-09T16:16:54.770Z,78.50
2023-01-09T16:20:14.841Z,77.90
2023-01-09T16:23:33.912Z,77.40
2023-01-09T16:26:37.338Z,78.80
2023-01-09T16:29:49.824Z,77.50
2023-01-09T16:32:54.180Z,78.00
2023-01-09T16:35:59.038Z,78.40
2023-01-09T16:39:03.301Z,78.10
2023-01-09T16:42:27.954Z,78.10
2023-01-09T16:45:35.115Z,78.10
2023-01-09T16:48:40.305Z,78.20
2023-01-09T16:51:43.359Z,78.00
2023-01-09T16:54:47.507Z,77.40
2023-01-09T16:57:50.608Z,78.10
2023-01-09T17:00:54.046Z,78.10
2023-01-09T17:03:58.232Z,78.10
2023-01-09T17:07:02.945Z,78.10
2023-01-09T17:10:07.383Z,78.20
2023-01-09T17:13:10.280Z,77.60
2023-01-09T17:16:13.612Z,79.30
2023-01-09T17:19:19.673Z,77.90
2023-01-09T17:22:23.058Z,77.90
2023-01-09T17:25:43.518Z,77.80
2023-01-09T17:28:50.300Z,77.90
2023-01-09T17:31:53.254Z,77.30
2023-01-09T17:34:57.551Z,77.80
2023-01-09T17:38:00.487Z,77.70
2023-01-09T17:41:03.400Z,77.60
2023-01-09T17:44:06.519Z,77.60
2023-01-09T17:47:14.651Z,77.60
2023-01-09T17:50:21.555Z,77.50
2023-01-09T17:53:25.317Z,77.40
2023-01-09T17:56:31.976Z,77.30
2023-01-09T17:59:35.171Z,78.00
2023-01-09T18:02:38.065Z,77.30
2023-01-09T18:05:42.500Z,77.30
2023-01-09T18:08:45.627Z,78.50
2023-01-09T18:11:48.956Z,77.40
2023-01-09T18:14:53.310Z,77.00
2023-01-09T18:17:56.678Z,77.30
2023-01-09T18:21:04.676Z,77.00
2023-01-09T18:24:09.245Z,78.10
2023-01-09T18:27:12.176Z,77.60
2023-01-09T18:30:15.307Z,77.20
2023-01-09T18:33:18.915Z,77.00
2023-01-09T18:36:29.167Z,76.80
2023-01-09T18:39:32.584Z,76.80
2023-01-09T18:42:35.663Z,76.80
2023-01-09T18:45:39.772Z,76.60
2023-01-09T18:48:44.481Z,77.00
2023-01-09T18:51:48.873Z,77.40
2023-01-09T18:54:51.995Z,75.40
2023-01-09T18:57:58.519Z,75.60
2023-01-09T19:01:01.981Z,76.20
2023-01-09T19:04:05.787Z,75.70
2023-01-09T19:07:10.044Z,76.20
2023-01-09T19:10:13.230Z,76.20
2023-01-09T19:13:16.071Z,76.40
2023-01-09T19:16:19.955Z,76.50
2023-01-09T19:19:23.875Z,76.70
2023-01-09T19:22:28.582Z,76.90
2023-01-09T19:25:31.688Z,76.90
2023-01-09T19:28:34.660Z,77.10
2023-01-09T19:31:37.870Z,76.90
2023-01-09T19:34:41.132Z,76.90
2023-01-09T19:37:45.690Z,76.80
2023-01-09T19:40:48.828Z,76.80
2023-01-09T19:43:52.468Z,76.80
2023-01-09T19:46:55.367Z,77.20
2023-01-09T19:49:58.332Z,77.40
2023-01-09T19:53:02.764Z,76.60
2023-01-09T19:56:12.920Z,75.40
2023-01-09T19:59:16.233Z,77.70
2023-01-09T20:05:24.900Z,77.00
2023-01-09T20:08:29.243Z,76.60
2023-01-09T20:11:33.318Z,78.20
2023-01-09T20:14:38.599Z,76.40
2023-01-09T20:17:47.104Z,77.20
2023-01-09T20:20:52.555Z,77.10
2023-01-09T20:23:59.593Z,77.10
2023-01-09T20:27:02.424Z,77.10
2023-01-09T20:30:06.320Z,77.00
2023-01-09T20:33:09.326Z,77.10
2023-01-09T20:36:12.254Z,77.00
2023-01-09T20:39:16.466Z,76.90
2023-01-09T20:42:19.430Z,77.10
2023-01-09T20:45:22.281Z,76.70
2023-01-09T20:48:25.103Z,76.90
2023-01-09T20:51:28.511Z,76.60
2023-01-09T20:54:32.765Z,76.90
2023-01-09T20:57:35.960Z,76.80
2023-01-09T21:00:39.065Z,76.80
2023-01-09T21:03:42.176Z,77.80
2023-01-09T21:06:45.061Z,76.80
2023-01-09T21:09:49.262Z,76.80
2023-01-09T21:12:52.274Z,77.30
2023-01-09T21:15:55.293Z,77.70
2023-01-09T21:18:58.375Z,76.10
2023-01-09T21:22:01.448Z,77.10
2023-01-09T21:25:06.860Z,77.40
2023-01-09T21:28:13.887Z,77.00
2023-01-09T21:31:19.423Z,77.60
2023-01-09T21:34:22.342Z,77.20
2023-01-09T21:37:25.177Z,77.00
2023-01-09T21:40:29.646Z,77.20
2023-01-09T21:43:58.511Z,76.70
2023-01-09T21:47:03.405Z,77.00
2023-01-09T21:50:07.273Z,75.70
2023-01-09T21:53:10.505Z,76.80
2023-01-09T21:56:14.715Z,76.70
2023-01-09T21:59:17.703Z,76.80
2023-01-09T22:02:20.601Z,76.70
2023-01-09T22:05:24.478Z,76.80
2023-01-09T22:08:27.358Z,76.80
2023-01-09T22:11:31.831Z,76.80
2023-01-09T22:14:38.857Z,76.30
2023-01-09T22:17:44.523Z,76.90
2023-01-09T22:20:50.081Z,76.60
2023-01-09T22:23:56.879Z,77.80
2023-01-09T22:27:02.942Z,76.80
2023-01-09T22:30:11.762Z,76.90
2023-01-09T22:33:16.871Z,76.60
2023-01-09T22:36:21.825Z,77.00
2023-01-09T22:39:25.408Z,76.50
2023-01-09T22:42:29.844Z,77.10
2023-01-09T22:45:33.078Z,75.60
2023-01-09T22:48:36.287Z,77.40
2023-01-09T22:51:39.564Z,76.80
2023-01-09T22:54:42.589Z,76.30
2023-01-09T22:57:47.997Z,76.20
2023-01-09T23:00:52.647Z,76.60
2023-01-09T23:03:56.394Z,76.50
2023-01-09T23:07:07.721Z,76.40
2023-01-09T23:10:12.161Z,75.90
2023-01-09T23:16:20.088Z,76.00
2023-01-09T23:19:23.325Z,76.60
2023-01-09T23:22:26.923Z,76.50
2023-01-09T23:25:30.004Z,76.80
2023-01-09T23:28:34.288Z,76.30
2023-01-09T23:31:37.625Z,76.60
2023-01-09T23:34:41.568Z,77.00
2023-01-09T23:37:44.682Z,76.60
2023-01-09T23:40:47.531Z,77.10
2023-01-09T23:43:50.772Z,76.50
2023-01-09T23:46:54.107Z,76.90
2023-01-09T23:49:56.942Z,76.90
2023-01-09T23:53:00.027Z,76.80
2023-01-09T23:56:03.254Z,78.10
2023-01-09T23:59:09.458Z,76.70
